Airfield :
LOGIN :

Register | Disclaimer

   EN    FR    IT 

 










Legend :    VFR   Marginal VFR   IFR   Intensive IFR   Very Intensive IFR
Visi :
Ceiling :
>= 8 km
>= 3000ft
5 to 8 km
1000 to 3000 ft
1500m to 5 km
500 to 1000 ft
800 to 1500m
200 to 500 ft
< 800m
< 200 ft
Symbols :   Thunderstorms  Fog  Heavy snow  Heavy precipitations  Wind > 20 kt
SIGMETs :     Misc.  Thunderstorms  Icing  Turbulence  Mountain Waves  Volcanic Ashes







- Airport Elevation : 461 ft
- IATA code : WIE


ETOU - Wiesbaden Army

CURRENT METAR :
  • 211256Z AUTO 20004KT 9999 SCT150 09/03 A3035 RMK AO2 SLP285 T00890029 $

EXPIRED METARs :
  • 211156Z AUTO 16003KT 9999 SCT060 BKN160 08/03 A3037 RMK AO2 SLP291 T00820029 10082 20001 50000 $
  • 211056Z AUTO 00000KT 9999 SCT040 BKN060 07/02 A3038 RMK AO2 SLP295 T00690024 $

TAF TAF ETOU
Valid from the 21 at 12:00 until the 22 at 18:00 UTC


211201Z 2112/2218 27006KT 9999 SCT040 BKN060 QNH3036INS
BECMG 2201/2202 28006KT 8000 BR SCT010 BKN015 QNH3040INS
BECMG 2208/2209 23006KT 9999 NSW SCT015 BKN030 QNH3051INS TX11/2114Z TN03/2202Z
No reported NOTAMs for that airfield.



MET'MAP, your aeronautical weather chart ! - Copyright ORBIFLY December 2007 - Disclaimer

ORBIFLY MET'MAP TEAM :

Programming & Development : Alexandra Zaïnal
Concept & Development : Baudouin d'Aumeries
Co-Development & Prog : Marc-Olivier Méhu
Technical & hardware support : Manuel Goepfert

Contact : metmap@orbifly.com




SOURCES & CREDITS :

   NOAA